createdAt,value
2022-12-18T00:02:04.696Z,2.37
2022-12-18T00:04:51.849Z,4.23
2022-12-18T00:07:40.638Z,4.20
2022-12-18T00:10:27.711Z,6.87
2022-12-18T00:13:16.358Z,1.33
2022-12-18T00:16:05.212Z,2.07
2022-12-18T00:18:54.276Z,1.93
2022-12-18T00:21:44.345Z,3.23
2022-12-18T00:24:31.641Z,4.43
2022-12-18T00:27:18.317Z,14.20
2022-12-18T00:30:08.839Z,1.97
2022-12-18T00:32:56.982Z,5.53
2022-12-18T00:35:44.282Z,1.83
2022-12-18T00:38:31.110Z,3.63
2022-12-18T00:41:40.588Z,2.93
2022-12-18T00:44:26.591Z,2.17
2022-12-18T00:47:15.411Z,4.07
2022-12-18T00:50:02.839Z,2.27
2022-12-18T00:52:50.112Z,2.97
2022-12-18T00:55:37.179Z,6.43
2022-12-18T00:58:24.259Z,3.70
2022-12-18T01:01:11.350Z,2.23
2022-12-18T01:04:04.295Z,4.00
2022-12-18T01:06:51.501Z,9.60
2022-12-18T01:09:38.806Z,7.83
2022-12-18T01:12:26.119Z,3.77
2022-12-18T01:16:17.957Z,4.67
2022-12-18T01:19:06.071Z,7.40
2022-12-18T01:21:53.703Z,3.17
2022-12-18T01:24:40.519Z,2.50
2022-12-18T01:27:27.489Z,1.73
2022-12-18T01:30:14.651Z,2.30
2022-12-18T01:33:01.672Z,4.63
2022-12-18T01:35:49.780Z,6.73
2022-12-18T01:38:37.413Z,4.47
2022-12-18T01:41:26.872Z,4.83
2022-12-18T01:44:47.163Z,2.27
2022-12-18T01:47:46.908Z,4.87
2022-12-18T01:50:38.088Z,5.80
2022-12-18T01:53:27.640Z,10.27
2022-12-18T01:56:17.562Z,4.37
2022-12-18T01:59:07.008Z,10.20
2022-12-18T02:01:54.027Z,4.70
2022-12-18T02:04:49.193Z,16.10
2022-12-18T02:07:45.302Z,2.73
2022-12-18T02:10:43.725Z,4.53
2022-12-18T02:13:37.549Z,3.67
2022-12-18T02:16:29.049Z,5.20
2022-12-18T02:19:39.521Z,10.97
2022-12-18T02:22:38.842Z,6.17
2022-12-18T02:25:42.331Z,6.67
2022-12-18T02:28:34.500Z,10.40
2022-12-18T02:31:33.251Z,8.90
2022-12-18T02:34:23.187Z,4.30
2022-12-18T02:37:14.533Z,4.63
2022-12-18T02:40:02.630Z,7.50
2022-12-18T02:42:49.780Z,7.53
2022-12-18T02:45:48.142Z,9.03
2022-12-18T02:48:37.309Z,11.67
2022-12-18T02:51:31.898Z,8.50
2022-12-18T02:54:28.195Z,7.57
2022-12-18T02:57:23.921Z,8.03
2022-12-18T03:00:14.726Z,4.80
2022-12-18T03:03:09.818Z,9.30
2022-12-18T03:06:01.030Z,5.33
2022-12-18T03:08:53.318Z,7.03
2022-12-18T03:12:02.771Z,3.63
2022-12-18T03:14:53.241Z,13.50
2022-12-18T03:17:43.796Z,4.50
2022-12-18T03:20:35.066Z,6.40
2022-12-18T03:23:26.607Z,5.97
2022-12-18T03:26:17.784Z,7.83
2022-12-18T03:29:09.112Z,9.13
2022-12-18T03:32:01.181Z,5.50
2022-12-18T03:34:53.102Z,4.47
2022-12-18T03:37:41.997Z,4.70
2022-12-18T03:40:37.797Z,4.10
2022-12-18T03:43:37.480Z,5.40
2022-12-18T03:46:30.805Z,10.67
2022-12-18T03:49:26.298Z,4.40
2022-12-18T03:52:19.877Z,8.40
2022-12-18T03:55:10.314Z,7.90
2022-12-18T03:57:58.171Z,14.63
2022-12-18T04:00:45.838Z,11.50
2022-12-18T04:03:36.393Z,7.00
2022-12-18T04:06:24.853Z,9.80
2022-12-18T04:09:12.602Z,6.47
2022-12-18T04:12:00.907Z,10.77
2022-12-18T04:14:48.153Z,3.80
2022-12-18T04:17:35.577Z,7.40
2022-12-18T04:20:22.711Z,10.43
2022-12-18T04:23:09.693Z,8.43
2022-12-18T04:25:57.108Z,10.17
2022-12-18T04:28:45.678Z,13.47
2022-12-18T04:31:33.007Z,6.13
2022-12-18T04:34:20.199Z,6.43
2022-12-18T04:37:07.081Z,7.67
2022-12-18T04:39:54.091Z,10.97
2022-12-18T04:42:41.845Z,10.53
2022-12-18T04:45:30.562Z,8.57
2022-12-18T04:48:17.787Z,10.60
2022-12-18T04:51:04.714Z,7.20
2022-12-18T04:53:51.571Z,9.53
2022-12-18T04:56:38.318Z,6.73
2022-12-18T04:59:25.442Z,7.67
2022-12-18T05:02:14.014Z,5.40
2022-12-18T05:05:01.131Z,7.77
2022-12-18T05:07:48.333Z,15.67
2022-12-18T05:10:38.215Z,13.93
2022-12-18T05:13:28.536Z,31.03
2022-12-18T05:16:16.180Z,13.83
2022-12-18T05:19:05.005Z,7.57
2022-12-18T05:21:54.354Z,17.40
2022-12-18T05:24:41.229Z,9.23
2022-12-18T05:27:28.419Z,7.50
2022-12-18T05:30:16.346Z,7.83
2022-12-18T05:33:03.709Z,10.20
2022-12-18T05:35:54.702Z,10.33
2022-12-18T05:38:43.639Z,20.43
2022-12-18T05:41:30.819Z,10.33
2022-12-18T05:44:18.071Z,10.07
2022-12-18T05:47:18.176Z,12.23
2022-12-18T05:50:06.326Z,14.93
2022-12-18T05:52:54.786Z,11.57
2022-12-18T05:55:43.041Z,12.07
2022-12-18T05:58:29.752Z,9.30
2022-12-18T06:01:24.506Z,9.93
2022-12-18T06:04:11.778Z,9.47
2022-12-18T06:06:58.982Z,9.07
2022-12-18T06:09:47.672Z,6.50
2022-12-18T06:12:34.957Z,11.73
2022-12-18T06:15:22.190Z,12.17
2022-12-18T06:18:09.256Z,17.47
2022-12-18T06:21:00.681Z,9.73
2022-12-18T06:23:47.631Z,10.77
2022-12-18T06:26:38.736Z,10.50
2022-12-18T06:29:26.136Z,6.53
2022-12-18T06:32:13.566Z,9.40
2022-12-18T06:35:00.451Z,6.17
2022-12-18T06:37:47.452Z,9.60
2022-12-18T06:40:34.901Z,10.30
2022-12-18T06:43:23.199Z,8.70
2022-12-18T06:46:11.320Z,7.30
2022-12-18T06:48:58.280Z,11.00
2022-12-18T06:51:45.560Z,9.90
2022-12-18T06:54:33.005Z,7.60
2022-12-18T06:57:19.951Z,7.63
2022-12-18T07:00:10.251Z,17.47
2022-12-18T07:02:57.355Z,6.30
2022-12-18T07:05:44.632Z,8.93
2022-12-18T07:08:32.532Z,8.83
2022-12-18T07:11:20.428Z,4.97
2022-12-18T07:14:07.711Z,6.33
2022-12-18T07:16:56.317Z,5.13
2022-12-18T07:19:43.779Z,6.57
2022-12-18T07:22:30.884Z,19.47
2022-12-18T07:25:18.306Z,7.80
2022-12-18T07:28:07.134Z,6.60
2022-12-18T07:30:54.152Z,9.07
2022-12-18T07:33:44.476Z,12.23
2022-12-18T07:36:31.532Z,11.77
2022-12-18T07:39:18.753Z,19.33
2022-12-18T07:42:23.578Z,10.50
2022-12-18T07:45:12.593Z,7.07
2022-12-18T07:47:59.514Z,8.57
2022-12-18T07:50:48.357Z,10.10
2022-12-18T07:53:37.292Z,12.10
2022-12-18T07:56:28.321Z,9.50
2022-12-18T07:59:15.810Z,13.77
2022-12-18T08:02:05.091Z,9.90
2022-12-18T08:04:54.239Z,15.07
2022-12-18T08:07:42.574Z,11.47
2022-12-18T08:10:29.373Z,11.57
2022-12-18T08:13:16.098Z,11.50
2022-12-18T08:16:05.787Z,16.20
2022-12-18T08:18:54.719Z,13.40
2022-12-18T08:21:44.638Z,18.80
2022-12-18T08:24:33.004Z,11.83
2022-12-18T08:27:29.342Z,16.23
2022-12-18T08:30:17.011Z,15.40
2022-12-18T08:33:04.636Z,19.27
2022-12-18T08:35:51.456Z,16.83
2022-12-18T08:38:38.711Z,16.33
2022-12-18T08:41:27.257Z,14.83
2022-12-18T08:44:31.689Z,19.23
2022-12-18T08:47:18.468Z,17.37
2022-12-18T08:50:07.185Z,16.37
2022-12-18T08:52:54.121Z,16.67
2022-12-18T08:55:43.548Z,13.47
2022-12-18T08:58:34.468Z,23.20
2022-12-18T09:01:22.361Z,21.20
2022-12-18T09:04:11.160Z,16.63
2022-12-18T09:06:58.146Z,28.30
2022-12-18T09:09:45.097Z,23.10
2022-12-18T09:12:32.764Z,27.63
2022-12-18T09:15:21.009Z,24.23
2022-12-18T09:18:08.558Z,22.20
2022-12-18T09:20:55.668Z,27.83
2022-12-18T09:23:43.475Z,25.57
2022-12-18T09:26:30.652Z,28.77
2022-12-18T09:29:18.927Z,31.23
2022-12-18T09:32:08.081Z,25.87
2022-12-18T09:34:55.095Z,27.03
2022-12-18T09:37:43.402Z,28.33
2022-12-18T09:40:37.225Z,23.37
2022-12-18T09:43:30.246Z,22.70
2022-12-18T09:46:21.631Z,27.00
2022-12-18T09:49:15.734Z,24.67
2022-12-18T09:52:07.147Z,22.90
2022-12-18T09:54:58.991Z,28.47
2022-12-18T09:57:51.653Z,25.43
2022-12-18T10:00:39.012Z,26.73
2022-12-18T10:03:26.217Z,25.63
2022-12-18T10:06:20.795Z,29.67
2022-12-18T10:09:15.079Z,24.07
2022-12-18T10:12:10.802Z,24.17
2022-12-18T10:15:04.311Z,22.13
2022-12-18T10:18:00.637Z,29.60
2022-12-18T10:20:51.127Z,24.90
2022-12-18T10:23:48.351Z,25.07
2022-12-18T10:26:36.501Z,28.13
2022-12-18T10:29:23.761Z,26.37
2022-12-18T10:32:17.622Z,25.40
2022-12-18T10:35:05.170Z,24.63
2022-12-18T10:38:07.650Z,24.63
2022-12-18T10:40:59.155Z,22.80
2022-12-18T10:43:46.553Z,25.10
2022-12-18T10:46:34.122Z,23.93
2022-12-18T10:49:24.582Z,24.03
2022-12-18T10:52:18.364Z,22.97
2022-12-18T10:55:07.523Z,26.47
2022-12-18T10:57:58.747Z,24.27
2022-12-18T11:00:46.323Z,24.53
2022-12-18T11:03:37.304Z,24.87
2022-12-18T11:06:26.516Z,23.23
2022-12-18T11:09:23.223Z,23.00
2022-12-18T11:12:20.241Z,21.43
2022-12-18T11:15:17.248Z,25.13
2022-12-18T11:18:04.480Z,28.53
2022-12-18T11:20:58.749Z,22.83
2022-12-18T11:23:50.423Z,17.10
2022-12-18T11:26:38.200Z,24.03
2022-12-18T11:29:31.154Z,22.50
2022-12-18T11:32:33.651Z,25.80
2022-12-18T11:35:26.487Z,23.03
2022-12-18T11:38:23.943Z,25.07
2022-12-18T11:41:45.148Z,20.63
2022-12-18T11:44:38.155Z,24.67
2022-12-18T11:47:33.504Z,27.00
2022-12-18T11:50:23.770Z,23.13
2022-12-18T11:53:14.175Z,22.33
2022-12-18T11:56:21.975Z,26.37
2022-12-18T11:59:17.682Z,25.13
2022-12-18T12:02:21.892Z,22.70
2022-12-18T12:05:41.590Z,28.77
2022-12-18T12:08:38.818Z,24.30
2022-12-18T12:11:37.319Z,20.57
2022-12-18T12:14:37.153Z,31.37
2022-12-18T12:17:31.861Z,25.57
2022-12-18T12:20:27.487Z,25.30
2022-12-18T12:23:26.089Z,32.23
2022-12-18T12:26:22.076Z,21.70
2022-12-18T12:29:26.071Z,24.37
2022-12-18T12:32:25.017Z,22.23
2022-12-18T12:35:23.102Z,23.67
2022-12-18T12:38:17.039Z,25.50
2022-12-18T12:41:07.432Z,22.63
2022-12-18T12:43:56.617Z,27.03
2022-12-18T12:46:44.922Z,23.83
2022-12-18T12:49:40.398Z,20.30
2022-12-18T12:52:36.403Z,24.60
2022-12-18T12:55:27.345Z,19.43
2022-12-18T12:58:20.986Z,21.67
2022-12-18T13:01:21.552Z,21.40
2022-12-18T13:04:23.894Z,26.53
2022-12-18T13:07:18.971Z,21.43
2022-12-18T13:10:34.019Z,21.27
2022-12-18T13:13:23.642Z,19.23
2022-12-18T13:16:11.719Z,23.60
2022-12-18T13:19:00.052Z,22.87
2022-12-18T13:21:56.419Z,20.70
2022-12-18T13:24:43.537Z,21.33
2022-12-18T13:28:00.487Z,19.87
2022-12-18T13:30:50.858Z,23.03
2022-12-18T13:36:54.294Z,21.73
2022-12-18T13:39:41.286Z,23.57
2022-12-18T13:43:00.229Z,21.67
2022-12-18T13:45:52.140Z,23.80
2022-12-18T13:48:41.550Z,20.93
2022-12-18T13:51:29.677Z,22.23
2022-12-18T13:54:22.426Z,29.13
2022-12-18T13:57:28.963Z,24.60
2022-12-18T14:00:28.791Z,23.03
2022-12-18T14:03:27.191Z,19.70
2022-12-18T14:06:15.409Z,21.97
2022-12-18T14:09:05.332Z,21.10
2022-12-18T14:12:18.533Z,18.93
2022-12-18T14:15:08.293Z,19.63
2022-12-18T14:17:57.877Z,17.30
2022-12-18T14:20:53.258Z,16.90
2022-12-18T14:23:42.965Z,20.80
2022-12-18T14:26:33.285Z,22.00
2022-12-18T14:29:26.062Z,23.30
2022-12-18T14:32:18.272Z,21.13
2022-12-18T14:35:15.942Z,20.37
2022-12-18T14:38:23.641Z,20.90
2022-12-18T14:41:14.181Z,23.07
2022-12-18T14:44:08.422Z,21.20
2022-12-18T14:46:56.142Z,21.97
2022-12-18T14:49:44.911Z,21.33
2022-12-18T14:52:35.013Z,24.07
2022-12-18T14:55:23.847Z,19.23
2022-12-18T14:58:17.974Z,23.17
2022-12-18T15:01:05.298Z,21.60
2022-12-18T15:03:54.207Z,23.87
2022-12-18T15:06:42.781Z,25.17
2022-12-18T15:09:30.113Z,25.70
2022-12-18T15:12:30.705Z,24.70
2022-12-18T15:15:47.529Z,20.90
2022-12-18T15:18:37.661Z,18.20
2022-12-18T15:21:25.781Z,31.50
2022-12-18T15:24:19.748Z,24.73
2022-12-18T15:27:06.881Z,30.83
2022-12-18T15:30:21.178Z,21.33
2022-12-18T15:33:27.091Z,23.73
2022-12-18T15:36:16.818Z,22.07
2022-12-18T15:39:08.058Z,27.70
2022-12-18T15:42:12.280Z,26.80
2022-12-18T15:44:59.062Z,19.93
2022-12-18T15:48:16.126Z,24.43
2022-12-18T15:51:13.572Z,26.70
2022-12-18T15:54:04.823Z,24.90
2022-12-18T15:57:09.751Z,23.37
2022-12-18T15:59:59.441Z,20.27
2022-12-18T16:02:46.702Z,21.97
2022-12-18T16:05:35.515Z,22.73
2022-12-18T16:08:22.537Z,21.03
2022-12-18T16:11:38.823Z,26.80
2022-12-18T16:14:28.453Z,22.77
2022-12-18T16:17:16.708Z,21.70
2022-12-18T16:20:03.671Z,21.63
2022-12-18T16:22:52.392Z,26.30
2022-12-18T16:25:39.802Z,21.90
2022-12-18T16:28:26.947Z,18.30
2022-12-18T16:31:14.138Z,17.00
2022-12-18T16:34:15.243Z,18.30
2022-12-18T16:37:05.769Z,23.27
2022-12-18T16:39:54.310Z,22.50
2022-12-18T16:42:43.103Z,24.47
2022-12-18T16:45:34.158Z,29.27
2022-12-18T16:48:21.189Z,19.47
2022-12-18T16:51:08.539Z,27.73
2022-12-18T16:53:56.043Z,27.87
2022-12-18T16:56:45.424Z,26.93
2022-12-18T16:59:35.639Z,29.33
2022-12-18T17:02:25.204Z,32.23
2022-12-18T17:05:12.681Z,21.40
2022-12-18T17:07:59.885Z,28.97
2022-12-18T17:10:47.345Z,22.50
2022-12-18T17:13:38.224Z,28.33
2022-12-18T17:16:26.383Z,24.40
2022-12-18T17:19:17.290Z,24.70
2022-12-18T17:22:33.589Z,26.43
2022-12-18T17:25:22.235Z,28.20
2022-12-18T17:28:12.181Z,27.80
2022-12-18T17:31:01.565Z,27.27
2022-12-18T17:33:48.943Z,27.63
2022-12-18T17:36:36.777Z,27.77
2022-12-18T17:39:23.849Z,33.30
2022-12-18T17:42:14.794Z,31.07
2022-12-18T17:45:03.380Z,33.87
2022-12-18T17:47:56.780Z,28.10
2022-12-18T17:50:47.059Z,23.00
2022-12-18T17:53:34.552Z,28.50
2022-12-18T17:56:23.606Z,32.13
2022-12-18T17:59:10.943Z,26.93
2022-12-18T18:01:58.074Z,32.27
2022-12-18T18:04:46.783Z,27.47
2022-12-18T18:07:34.001Z,24.83
2022-12-18T18:10:20.837Z,27.07
2022-12-18T18:13:25.851Z,25.03
2022-12-18T18:16:13.581Z,21.30
2022-12-18T18:19:06.889Z,29.90
2022-12-18T18:21:55.558Z,27.03
2022-12-18T18:24:43.946Z,31.10
2022-12-18T18:27:38.228Z,25.93
2022-12-18T18:30:26.151Z,24.63
2022-12-18T18:33:13.303Z,30.30
2022-12-18T18:36:00.656Z,29.67
2022-12-18T18:38:49.112Z,29.20
2022-12-18T18:41:36.287Z,24.77
2022-12-18T18:44:25.565Z,25.67
2022-12-18T18:47:14.341Z,27.07
2022-12-18T18:50:01.353Z,20.90
2022-12-18T18:52:48.334Z,28.63
2022-12-18T18:55:38.722Z,25.33
2022-12-18T18:58:26.302Z,29.23
2022-12-18T19:01:15.857Z,29.30
2022-12-18T19:04:04.779Z,31.93
2022-12-18T19:06:52.220Z,21.33
2022-12-18T19:09:40.074Z,22.33
2022-12-18T19:12:46.024Z,24.17
2022-12-18T19:15:34.527Z,23.37
2022-12-18T19:18:22.446Z,22.67
2022-12-18T19:21:09.524Z,27.93
2022-12-18T19:23:56.526Z,22.50
2022-12-18T19:26:43.718Z,29.10
2022-12-18T19:29:57.250Z,25.17
2022-12-18T19:32:47.372Z,26.33
2022-12-18T19:35:34.680Z,21.77
2022-12-18T19:38:22.115Z,20.00
2022-12-18T19:41:09.848Z,29.53
2022-12-18T19:44:01.104Z,38.67
2022-12-18T19:46:56.369Z,21.50
2022-12-18T19:49:43.376Z,24.73
2022-12-18T19:52:30.859Z,18.87
2022-12-18T19:55:18.935Z,24.90
2022-12-18T19:58:05.803Z,23.23
2022-12-18T20:00:53.297Z,22.67
2022-12-18T20:03:42.262Z,25.03
2022-12-18T20:06:31.865Z,26.63
2022-12-18T20:09:19.788Z,27.60
2022-12-18T20:12:08.036Z,24.03
2022-12-18T20:14:56.008Z,22.47
2022-12-18T20:17:43.738Z,29.60
2022-12-18T20:20:32.765Z,22.30
2022-12-18T20:23:19.835Z,29.17
2022-12-18T20:26:07.006Z,21.40
2022-12-18T20:28:56.758Z,22.30
2022-12-18T20:31:44.218Z,25.53
2022-12-18T20:34:31.157Z,31.50
2022-12-18T20:37:20.596Z,22.03
2022-12-18T20:40:09.470Z,21.27
2022-12-18T20:42:56.376Z,30.90
2022-12-18T20:45:43.529Z,21.93
2022-12-18T20:48:32.255Z,23.37
2022-12-18T20:51:22.206Z,22.07
2022-12-18T20:54:11.984Z,19.90
2022-12-18T20:56:59.660Z,29.07
2022-12-18T20:59:48.454Z,25.53
2022-12-18T21:02:35.838Z,20.50
2022-12-18T21:05:23.263Z,24.93
2022-12-18T21:08:11.344Z,24.67
2022-12-18T21:11:30.687Z,25.13
2022-12-18T21:14:19.291Z,20.43
2022-12-18T21:17:06.611Z,25.17
2022-12-18T21:19:53.707Z,25.17
2022-12-18T21:22:42.409Z,28.20
2022-12-18T21:25:29.456Z,28.47
2022-12-18T21:28:18.120Z,21.67
2022-12-18T21:31:05.435Z,24.70
2022-12-18T21:33:56.639Z,19.53
2022-12-18T21:36:49.641Z,24.90
2022-12-18T21:39:36.663Z,28.90
2022-12-18T21:42:42.222Z,24.27
2022-12-18T21:45:30.583Z,23.63
2022-12-18T21:48:17.649Z,25.47
2022-12-18T21:51:04.555Z,20.40
2022-12-18T21:53:53.525Z,29.07
2022-12-18T21:56:48.749Z,25.33
2022-12-18T21:59:37.604Z,22.93
2022-12-18T22:02:26.821Z,24.80
2022-12-18T22:05:13.878Z,17.40
2022-12-18T22:08:01.658Z,25.13
2022-12-18T22:10:48.435Z,22.27
2022-12-18T22:13:35.842Z,18.30
2022-12-18T22:16:23.536Z,22.07
2022-12-18T22:19:12.809Z,24.70
2022-12-18T22:22:01.748Z,27.67
2022-12-18T22:24:48.921Z,31.03
2022-12-18T22:27:35.658Z,18.17
2022-12-18T22:30:21.767Z,18.10
2022-12-18T22:33:09.055Z,22.17
2022-12-18T22:35:57.516Z,21.43
2022-12-18T22:38:48.116Z,21.23
2022-12-18T22:41:35.730Z,17.00
2022-12-18T22:44:25.291Z,51.17
2022-12-18T22:47:15.571Z,40.03
2022-12-18T22:50:04.038Z,26.60
2022-12-18T22:52:52.643Z,27.03
2022-12-18T22:55:39.813Z,30.23
2022-12-18T22:58:27.890Z,22.97
2022-12-18T23:01:22.254Z,20.10
2022-12-18T23:04:10.787Z,26.63
2022-12-18T23:07:04.051Z,25.17
2022-12-18T23:10:00.857Z,31.20
2022-12-18T23:12:49.376Z,31.97
2022-12-18T23:15:42.013Z,19.87
2022-12-18T23:18:29.126Z,23.20
2022-12-18T23:21:18.359Z,23.03
2022-12-18T23:24:07.585Z,22.70
2022-12-18T23:26:56.584Z,19.47
2022-12-18T23:29:43.332Z,23.27
2022-12-18T23:32:33.018Z,25.30
2022-12-18T23:35:21.565Z,21.50
2022-12-18T23:38:08.491Z,19.40
2022-12-18T23:40:56.521Z,22.70
2022-12-18T23:43:45.282Z,25.33
2022-12-18T23:46:37.644Z,19.00
2022-12-18T23:49:25.010Z,24.20
2022-12-18T23:52:12.811Z,22.93
2022-12-18T23:54:59.575Z,23.87
2022-12-18T23:57:46.848Z,17.60
